Mount Sterling, WI

12:53 PM CDT on August 02, 2015 (GMT -0500)
Soldiers Grove area | | Change Station
CLOSE
Current Station
Personal Weather Station
Location: Soldiers Grove, WI
Elevation: 1132 ft
Nearby Weather Stations

Elev 1132 ft 43.42 °N, 90.86 °W | Updated 6 seconds ago

Clear
Clear
86.0 °F
Feels Like 92 °F
N
5.0
Wind Variable Wind from SSE
Gusts 14.0 mph

Today
High -- | Low -- °F
--% Chance of Precip.
Yesterday
High -- | Low -- °F
Precip. -- in
5:54 AM 8:24 PM
Waning Gibbous, 93% visible
Pressure 29.70 in
Visibility 10.0 miles
Clouds Clear
Heat Index 92 °F
Dew Point 72 °F
Humidity 63%
Rainfall 0.00 in
Snow Depth Not available.
UV 10 out of 12
Pollen 6.20 out of 12
Air Quality Not available.
Flu Activity Not available.
METAR KOVS 021653Z AUTO 24011G18KT 10SM CLR 31/20 A2971 RMK AO2 SLP056 T03110200

More Conditions Fewer Conditions

Pressure 29.70 in
Visibility 10.0 miles
Clouds Clear
Heat Index 92 °F
Dew Point 72 °F
Humidity 63%
Rainfall 0.00 in
Snow Depth Not available.
UV 10 out of 12
Pollen 6.20 out of 12
Air Quality Not available.
Flu Activity Not available.
METAR KOVS 021653Z AUTO 24011G18KT 10SM CLR 31/20 A2971 RMK AO2 SLP056 T03110200

More Conditions Fewer Conditions

10-Day Weather Forecast

×

Almanac

Astronomy

Aug. 02, 2015 Rise Set
Actual Time
Civil Twilight
Nautical Twilight
Astronomical Twilight
Moon
Length of Visible Light
Length of Day
Tomorrow will be .
, % of the Moon is Illuminated

Today's Extremes

State Highs State Lows

Community

WunderPhotos

Upload Photos

1,843,323 photos uploaded!

WunderBlogs® & News

Nearby

Air Quality

  Air Quality AQ Index Pollutant
Not available.

Snow Depth

Station Depth Elevation

Earthquake Activity

City Distance Mag. Time & Date
Minimum magnitude displayed is 2.5.

Coastal Water Temperatures

Place Temperature

Stations

Nearby Weather Stations

Station Location Temp. Windchill Dew Point Humidity Wind Precip. Elev Updated Type